createdAt,value
2017-11-22T00:00:56.471Z,34.37
2017-11-22T00:03:24.010Z,28.93
2017-11-22T00:05:51.524Z,31.70
2017-11-22T00:08:19.064Z,39.27
2017-11-22T00:10:46.629Z,24.67
2017-11-22T00:13:14.152Z,25.33
2017-11-22T00:15:41.679Z,25.20
2017-11-22T00:18:10.034Z,22.83
2017-11-22T00:20:37.568Z,21.93
2017-11-22T00:23:05.097Z,23.37
2017-11-22T00:25:33.421Z,16.30
2017-11-22T00:28:02.155Z,20.00
2017-11-22T00:30:31.151Z,21.83
2017-11-22T00:32:59.521Z,27.53
2017-11-22T00:35:27.031Z,22.40
2017-11-22T00:37:54.554Z,25.73
2017-11-22T00:40:22.166Z,24.87
2017-11-22T00:42:49.690Z,22.90
2017-11-22T00:45:17.984Z,22.73
2017-11-22T00:47:45.536Z,18.30
2017-11-22T00:50:13.871Z,17.77
2017-11-22T00:52:41.443Z,22.80
2017-11-22T00:55:08.982Z,17.60
2017-11-22T00:57:36.560Z,18.87
2017-11-22T01:00:04.066Z,17.93
2017-11-22T01:02:31.564Z,15.37
2017-11-22T01:04:59.052Z,17.63
2017-11-22T01:07:27.064Z,15.50
2017-11-22T01:09:54.588Z,17.13
2017-11-22T01:12:22.089Z,18.37
2017-11-22T01:14:49.600Z,24.17
2017-11-22T01:17:17.125Z,16.20
2017-11-22T01:19:44.590Z,13.07
2017-11-22T01:22:12.064Z,16.53
2017-11-22T01:24:39.568Z,16.90
2017-11-22T01:27:07.040Z,18.40
2017-11-22T01:29:34.549Z,17.33
2017-11-22T01:32:02.085Z,29.30
2017-11-22T01:34:29.632Z,15.17
2017-11-22T01:36:57.161Z,17.90
2017-11-22T01:39:24.728Z,22.50
2017-11-22T01:41:52.228Z,16.23
2017-11-22T01:44:19.763Z,19.10
2017-11-22T01:46:47.248Z,17.50
2017-11-22T01:49:14.755Z,20.63
2017-11-22T01:51:42.283Z,21.53
2017-11-22T01:54:09.764Z,24.93
2017-11-22T01:56:37.295Z,27.00
2017-11-22T01:59:04.813Z,20.30
2017-11-22T02:01:33.167Z,20.93
2017-11-22T02:04:00.682Z,21.20
2017-11-22T02:06:28.198Z,22.00
2017-11-22T02:08:55.756Z,22.23
2017-11-22T02:11:23.301Z,23.53
2017-11-22T02:13:50.864Z,17.00
2017-11-22T02:16:18.416Z,13.00
2017-11-22T02:18:45.921Z,11.93
2017-11-22T02:21:13.489Z,19.47
2017-11-22T02:23:41.065Z,22.87
2017-11-22T02:26:08.594Z,18.70
2017-11-22T02:28:36.112Z,17.97
2017-11-22T02:31:03.672Z,14.20
2017-11-22T02:33:31.190Z,23.30
2017-11-22T02:35:58.741Z,21.17
2017-11-22T02:38:26.336Z,14.30
2017-11-22T02:40:53.876Z,24.40
2017-11-22T02:43:21.411Z,14.37
2017-11-22T02:45:48.936Z,20.23
2017-11-22T02:48:16.487Z,13.30
2017-11-22T02:50:44.014Z,12.07
2017-11-22T02:53:11.549Z,16.40
2017-11-22T02:55:39.114Z,17.63
2017-11-22T02:58:07.436Z,13.93
2017-11-22T03:00:34.936Z,17.30
2017-11-22T03:03:02.518Z,18.90
2017-11-22T03:05:30.065Z,23.43
2017-11-22T03:07:57.617Z,14.87
2017-11-22T03:10:25.167Z,14.40
2017-11-22T03:12:53.259Z,14.97
2017-11-22T03:15:20.813Z,15.73
2017-11-22T03:17:48.344Z,14.30
2017-11-22T03:20:16.608Z,20.47
2017-11-22T03:22:44.923Z,18.07
2017-11-22T03:25:13.188Z,19.17
2017-11-22T03:27:41.605Z,14.80
2017-11-22T03:30:09.159Z,15.70
2017-11-22T03:32:36.679Z,12.93
2017-11-22T03:35:04.246Z,16.83
2017-11-22T03:37:31.773Z,14.87
2017-11-22T03:39:59.391Z,24.40
2017-11-22T03:42:27.679Z,14.57
2017-11-22T03:44:55.255Z,17.57
2017-11-22T03:47:22.784Z,18.83
2017-11-22T03:49:56.712Z,16.17
2017-11-22T03:52:29.724Z,18.80
2017-11-22T03:54:57.279Z,17.90
2017-11-22T03:57:24.870Z,18.47
2017-11-22T03:59:52.410Z,12.63
2017-11-22T04:02:24.795Z,15.50
2017-11-22T04:04:54.269Z,13.00
2017-11-22T04:07:22.634Z,20.93
2017-11-22T04:09:50.243Z,13.73
2017-11-22T04:12:17.858Z,15.30
2017-11-22T04:14:45.356Z,24.03
2017-11-22T04:17:13.664Z,11.57
2017-11-22T04:19:56.088Z,17.67
2017-11-22T04:22:23.658Z,16.37
2017-11-22T04:24:51.174Z,15.40
2017-11-22T04:27:18.708Z,18.10
2017-11-22T04:29:46.261Z,15.87
2017-11-22T04:32:13.799Z,17.13
2017-11-22T04:34:41.927Z,10.73
2017-11-22T04:37:10.210Z,18.63
2017-11-22T04:39:38.480Z,15.93
2017-11-22T04:42:06.064Z,17.13
2017-11-22T04:44:34.458Z,13.37
2017-11-22T04:47:02.060Z,15.40
2017-11-22T04:49:29.624Z,20.00
2017-11-22T04:51:57.160Z,13.70
2017-11-22T04:54:25.525Z,15.60
2017-11-22T04:56:53.128Z,15.90
2017-11-22T04:59:20.655Z,11.83
2017-11-22T05:01:48.968Z,14.27
2017-11-22T05:04:16.509Z,13.87
2017-11-22T05:06:44.779Z,15.97
2017-11-22T05:09:12.325Z,18.50
2017-11-22T05:11:39.866Z,15.23
2017-11-22T05:14:07.469Z,19.63
2017-11-22T05:16:35.008Z,16.87
2017-11-22T05:19:02.568Z,20.30
2017-11-22T05:21:30.162Z,23.00
2017-11-22T05:23:58.528Z,14.27
2017-11-22T05:26:26.173Z,15.70
2017-11-22T05:28:53.736Z,16.70
2017-11-22T05:31:21.374Z,15.33
2017-11-22T05:33:49.679Z,20.70
2017-11-22T05:36:17.332Z,15.00
2017-11-22T05:38:44.841Z,15.17
2017-11-22T05:41:12.408Z,15.13
2017-11-22T05:43:39.915Z,16.87
2017-11-22T05:46:07.431Z,15.13
2017-11-22T05:48:34.978Z,13.63
2017-11-22T05:51:02.506Z,12.60
2017-11-22T05:53:30.004Z,21.17
2017-11-22T05:55:57.544Z,17.43
2017-11-22T05:58:25.541Z,15.87
2017-11-22T06:00:53.084Z,19.67
2017-11-22T06:03:20.714Z,15.70
2017-11-22T06:05:48.231Z,20.93
2017-11-22T06:08:15.785Z,17.60
2017-11-22T06:10:43.357Z,23.60
2017-11-22T06:13:10.867Z,21.17
2017-11-22T06:15:38.411Z,20.70
2017-11-22T06:18:06.039Z,22.30
2017-11-22T06:20:33.564Z,18.23
2017-11-22T06:23:01.134Z,19.30
2017-11-22T06:25:28.682Z,19.57
2017-11-22T06:27:56.216Z,10.73
2017-11-22T06:30:30.422Z,26.10
2017-11-22T06:32:57.941Z,20.33
2017-11-22T06:35:26.257Z,18.33
2017-11-22T06:37:53.950Z,16.00
2017-11-22T06:40:21.477Z,54.20
2017-11-22T06:42:49.874Z,35.10
2017-11-22T06:45:17.441Z,62.63
2017-11-22T06:47:45.027Z,61.53
2017-11-22T06:50:12.572Z,25.97
2017-11-22T06:52:40.106Z,21.37
2017-11-22T06:55:07.617Z,17.80
2017-11-22T06:57:35.175Z,20.97
2017-11-22T07:00:02.750Z,15.63
2017-11-22T07:02:35.776Z,14.47
2017-11-22T07:05:03.313Z,13.03
2017-11-22T07:07:30.893Z,18.53
2017-11-22T07:09:58.418Z,21.07
2017-11-22T07:12:26.096Z,15.20
2017-11-22T07:14:53.619Z,20.90
2017-11-22T07:17:27.578Z,13.57
2017-11-22T07:19:55.072Z,16.47
2017-11-22T07:22:22.599Z,11.40
2017-11-22T07:24:50.191Z,16.80
2017-11-22T07:27:17.732Z,16.50
2017-11-22T07:29:45.261Z,11.70
2017-11-22T07:32:12.815Z,10.33
2017-11-22T07:34:41.115Z,10.97
2017-11-22T07:37:14.246Z,25.53
2017-11-22T07:39:41.808Z,13.40
2017-11-22T07:42:09.369Z,12.80
2017-11-22T07:44:36.872Z,12.00
2017-11-22T07:47:10.869Z,12.73
2017-11-22T07:49:38.400Z,10.40
2017-11-22T07:52:11.462Z,14.80
2017-11-22T07:54:38.982Z,15.10
2017-11-22T07:57:06.569Z,11.97
2017-11-22T07:59:34.164Z,11.73
2017-11-22T08:02:01.729Z,14.70
2017-11-22T08:04:29.262Z,10.50
2017-11-22T08:06:57.621Z,11.00
2017-11-22T08:09:25.126Z,9.93
2017-11-22T08:11:53.488Z,9.57
2017-11-22T08:14:21.051Z,12.47
2017-11-22T08:16:49.362Z,12.53
2017-11-22T08:19:17.684Z,12.70
2017-11-22T08:21:45.222Z,8.13
2017-11-22T08:24:13.081Z,12.37
2017-11-22T08:26:40.632Z,13.73
2017-11-22T08:29:08.986Z,11.23
2017-11-22T08:31:36.483Z,26.27
2017-11-22T08:34:04.759Z,9.53
2017-11-22T08:36:32.327Z,42.63
2017-11-22T08:38:59.843Z,67.63
2017-11-22T08:41:27.361Z,7.93
2017-11-22T08:43:55.676Z,8.27
2017-11-22T08:46:23.214Z,6.40
2017-11-22T08:48:50.794Z,12.63
2017-11-22T08:51:18.292Z,7.23
2017-11-22T08:53:45.857Z,6.47
2017-11-22T08:56:19.120Z,7.20
2017-11-22T08:58:46.676Z,8.20
2017-11-22T09:01:14.223Z,8.40
2017-11-22T09:03:45.369Z,9.03
2017-11-22T09:06:19.297Z,10.97
2017-11-22T09:08:46.863Z,12.27
2017-11-22T09:11:14.366Z,5.40
2017-11-22T09:13:41.897Z,8.00
2017-11-22T09:16:09.432Z,10.40
2017-11-22T09:18:38.890Z,5.97
2017-11-22T09:21:10.393Z,7.80
2017-11-22T09:23:38.693Z,9.67
2017-11-22T09:26:06.220Z,7.90
2017-11-22T09:28:34.524Z,7.13
2017-11-22T09:31:07.755Z,7.07
2017-11-22T09:33:35.290Z,7.20
2017-11-22T09:36:02.857Z,10.60
2017-11-22T09:38:30.362Z,8.97
2017-11-22T09:40:57.855Z,11.67
2017-11-22T09:43:25.397Z,8.03
2017-11-22T09:45:52.959Z,18.03
2017-11-22T09:48:20.463Z,15.57
2017-11-22T09:50:48.781Z,18.20
2017-11-22T09:53:16.288Z,16.23
2017-11-22T09:55:43.825Z,13.90
2017-11-22T09:58:11.330Z,18.50
2017-11-22T10:00:39.631Z,13.77
2017-11-22T10:03:07.138Z,17.87
2017-11-22T10:05:34.703Z,18.03
2017-11-22T10:08:02.219Z,18.47
2017-11-22T10:10:30.494Z,14.00
2017-11-22T10:12:58.819Z,32.07
2017-11-22T10:15:26.342Z,15.40
2017-11-22T10:17:59.582Z,17.40
2017-11-22T10:20:27.113Z,17.40
2017-11-22T10:22:54.620Z,13.20
2017-11-22T10:25:22.167Z,15.50
2017-11-22T10:27:55.405Z,11.23
2017-11-22T10:30:28.707Z,11.67
2017-11-22T10:32:57.005Z,11.43
2017-11-22T10:35:24.522Z,14.03
2017-11-22T10:37:52.060Z,11.70
2017-11-22T10:40:19.623Z,12.67
2017-11-22T10:42:47.172Z,13.20
2017-11-22T10:45:14.745Z,13.10
2017-11-22T10:47:42.282Z,8.20
2017-11-22T10:50:09.793Z,15.07
2017-11-22T10:52:37.314Z,14.37
2017-11-22T10:55:04.823Z,11.03
2017-11-22T10:57:32.387Z,10.30
2017-11-22T10:59:59.958Z,12.43
2017-11-22T11:02:27.452Z,18.80
2017-11-22T11:04:54.999Z,7.97
2017-11-22T11:07:22.521Z,15.17
2017-11-22T11:09:50.057Z,14.20
2017-11-22T11:12:18.343Z,12.50
2017-11-22T11:14:46.648Z,10.57
2017-11-22T11:17:14.187Z,8.90
2017-11-22T11:19:42.481Z,9.60
2017-11-22T11:22:10.013Z,10.30
2017-11-22T11:24:37.635Z,8.73
2017-11-22T11:27:05.151Z,20.43
2017-11-22T11:29:32.658Z,11.70
2017-11-22T11:32:00.213Z,10.67
2017-11-22T11:34:27.828Z,8.10
2017-11-22T11:36:55.333Z,8.07
2017-11-22T11:39:22.911Z,9.30
2017-11-22T11:41:50.449Z,6.33
2017-11-22T11:44:18.768Z,10.00
2017-11-22T11:46:46.287Z,9.33
2017-11-22T11:49:13.836Z,9.73
2017-11-22T11:51:41.457Z,9.07
2017-11-22T11:54:08.967Z,10.67
2017-11-22T11:56:36.496Z,9.37
2017-11-22T11:59:04.007Z,10.00
2017-11-22T12:01:32.350Z,7.33
2017-11-22T12:03:59.865Z,8.27
2017-11-22T12:06:28.216Z,14.17
2017-11-22T12:08:55.720Z,11.50
2017-11-22T12:11:23.276Z,9.53
2017-11-22T12:13:50.872Z,10.10
2017-11-22T12:16:18.384Z,7.73
2017-11-22T12:18:45.931Z,7.97
2017-11-22T12:21:13.440Z,10.10
2017-11-22T12:23:41.709Z,7.77
2017-11-22T12:26:09.296Z,9.00
2017-11-22T12:28:36.859Z,9.73
2017-11-22T12:31:04.415Z,8.30
2017-11-22T12:33:31.983Z,8.70
2017-11-22T12:36:00.267Z,8.13
2017-11-22T12:38:27.823Z,6.47
2017-11-22T12:40:56.090Z,5.10
2017-11-22T12:43:23.608Z,10.13
2017-11-22T12:45:51.154Z,5.90
2017-11-22T12:48:18.714Z,5.27
2017-11-22T12:50:46.257Z,8.00
2017-11-22T12:53:13.780Z,5.93
2017-11-22T12:55:41.332Z,3.83
2017-11-22T12:58:12.645Z,5.27
2017-11-22T13:00:40.145Z,7.57
2017-11-22T13:03:07.639Z,4.10
2017-11-22T13:05:35.185Z,5.23
2017-11-22T13:08:02.738Z,6.90
2017-11-22T13:10:45.074Z,6.93
2017-11-22T13:13:12.754Z,6.43
2017-11-22T13:15:41.058Z,4.30
2017-11-22T13:18:08.585Z,5.17
2017-11-22T13:20:36.128Z,5.37
2017-11-22T13:23:03.689Z,4.63
2017-11-22T13:25:31.384Z,5.83
2017-11-22T13:27:58.901Z,8.80
2017-11-22T13:30:26.447Z,5.03
2017-11-22T13:32:54.006Z,5.33
2017-11-22T13:35:22.293Z,11.27
2017-11-22T13:37:49.829Z,4.10
2017-11-22T13:40:17.373Z,5.83
2017-11-22T13:42:46.841Z,7.37
2017-11-22T13:45:14.413Z,5.73
2017-11-22T13:47:41.940Z,12.73
2017-11-22T13:50:10.251Z,4.77
2017-11-22T13:52:37.807Z,6.83
2017-11-22T13:55:05.363Z,6.30
2017-11-22T13:57:32.896Z,7.30
2017-11-22T14:00:00.450Z,5.67
2017-11-22T14:02:27.969Z,8.80
2017-11-22T14:04:55.488Z,3.30
2017-11-22T14:07:23.053Z,7.50
2017-11-22T14:09:50.580Z,5.43
2017-11-22T14:12:18.132Z,6.90
2017-11-22T14:14:45.664Z,5.97
2017-11-22T14:17:13.198Z,6.23
2017-11-22T14:19:40.751Z,6.23
2017-11-22T14:22:08.256Z,3.27
2017-11-22T14:24:36.566Z,4.73
2017-11-22T14:27:04.133Z,5.10
2017-11-22T14:29:31.677Z,4.80
2017-11-22T14:32:00.040Z,11.33
2017-11-22T14:34:27.609Z,5.93
2017-11-22T14:36:55.156Z,5.80
2017-11-22T14:39:22.685Z,5.00
2017-11-22T14:41:50.223Z,7.60
2017-11-22T14:44:17.725Z,7.83
2017-11-22T14:46:45.279Z,8.60
2017-11-22T14:49:12.789Z,7.40
2017-11-22T14:51:40.379Z,8.20
2017-11-22T14:54:08.707Z,3.30
2017-11-22T14:56:36.231Z,7.60
2017-11-22T14:59:03.809Z,5.90
2017-11-22T15:01:31.338Z,7.80
2017-11-22T15:03:58.849Z,9.57
2017-11-22T15:06:26.438Z,6.43
2017-11-22T15:08:53.945Z,11.10
2017-11-22T15:11:22.270Z,8.53
2017-11-22T15:13:49.820Z,7.20
2017-11-22T15:16:17.359Z,8.87
2017-11-22T15:18:44.899Z,9.03
2017-11-22T15:21:12.413Z,8.07
2017-11-22T15:23:39.948Z,9.20
2017-11-22T15:26:08.242Z,6.83
2017-11-22T15:28:35.769Z,7.43
2017-11-22T15:31:03.366Z,7.97
2017-11-22T15:33:30.904Z,7.20
2017-11-22T15:35:58.443Z,10.83
2017-11-22T15:38:26.037Z,8.10
2017-11-22T15:40:53.576Z,6.50
2017-11-22T15:43:21.085Z,13.27
2017-11-22T15:45:49.388Z,11.13
2017-11-22T15:48:16.903Z,8.87
2017-11-22T15:50:44.426Z,7.47
2017-11-22T15:53:11.980Z,11.43
2017-11-22T15:55:39.494Z,7.93
2017-11-22T15:58:07.134Z,16.37
2017-11-22T16:00:34.711Z,8.60
2017-11-22T16:03:02.275Z,9.77
2017-11-22T16:05:29.791Z,5.37
2017-11-22T16:07:57.382Z,6.10
2017-11-22T16:10:24.914Z,8.57
2017-11-22T16:12:52.432Z,12.00
2017-11-22T16:15:23.946Z,8.23
2017-11-22T16:17:51.493Z,8.93
2017-11-22T16:20:19.794Z,6.33
2017-11-22T16:22:47.373Z,10.67
2017-11-22T16:25:14.959Z,7.23
2017-11-22T16:27:42.494Z,11.00
2017-11-22T16:30:10.081Z,10.40
2017-11-22T16:32:37.666Z,7.83
2017-11-22T16:35:05.287Z,7.60
2017-11-22T16:37:32.882Z,4.73
2017-11-22T16:40:00.407Z,9.40
2017-11-22T16:42:27.949Z,4.20
2017-11-22T16:44:55.542Z,8.43
2017-11-22T16:47:23.071Z,5.73
2017-11-22T16:49:50.630Z,6.90
2017-11-22T16:52:18.207Z,10.30
2017-11-22T16:54:45.789Z,4.90
2017-11-22T16:57:13.350Z,15.83
2017-11-22T16:59:40.881Z,7.27
2017-11-22T17:02:09.021Z,12.90
2017-11-22T17:04:36.606Z,17.87
2017-11-22T17:07:04.143Z,8.23
2017-11-22T17:09:31.734Z,12.80
2017-11-22T17:11:59.288Z,8.10
2017-11-22T17:14:26.836Z,15.10
2017-11-22T17:16:54.443Z,9.97
2017-11-22T17:19:21.983Z,8.17
2017-11-22T17:21:49.666Z,9.40
2017-11-22T17:24:17.244Z,11.20
2017-11-22T17:26:50.739Z,7.07
2017-11-22T17:29:18.308Z,9.87
2017-11-22T17:31:50.068Z,9.87
2017-11-22T17:34:17.632Z,6.03
2017-11-22T17:36:45.136Z,8.30
2017-11-22T17:39:13.504Z,8.50
2017-11-22T17:41:41.779Z,6.03
2017-11-22T17:44:09.313Z,5.70
2017-11-22T17:46:36.935Z,4.33
2017-11-22T17:49:05.226Z,9.23
2017-11-22T17:51:32.885Z,5.70
2017-11-22T17:54:01.171Z,6.63
2017-11-22T17:56:29.458Z,7.00
2017-11-22T17:58:57.020Z,7.17
2017-11-22T18:01:24.575Z,6.93
2017-11-22T18:03:52.136Z,8.93
2017-11-22T18:06:24.655Z,6.07
2017-11-22T18:08:52.233Z,9.53
2017-11-22T18:11:19.855Z,4.70
2017-11-22T18:13:48.157Z,9.87
2017-11-22T18:16:24.143Z,5.13
2017-11-22T18:18:51.678Z,8.40
2017-11-22T18:21:19.218Z,6.13
2017-11-22T18:23:47.568Z,13.57
2017-11-22T18:26:15.102Z,5.23
2017-11-22T18:28:42.732Z,8.83
2017-11-22T18:31:10.276Z,5.10
2017-11-22T18:33:37.822Z,6.90
2017-11-22T18:36:05.364Z,8.30
2017-11-22T18:38:32.926Z,5.50
2017-11-22T18:41:00.510Z,5.23
2017-11-22T18:43:28.037Z,8.33
2017-11-22T18:45:55.599Z,6.93
2017-11-22T18:48:23.208Z,5.97
2017-11-22T18:50:50.815Z,7.30
2017-11-22T18:53:18.363Z,7.63
2017-11-22T18:55:46.686Z,6.00
2017-11-22T18:58:14.226Z,7.23
2017-11-22T19:00:42.600Z,6.13
2017-11-22T19:03:10.120Z,7.10
2017-11-22T19:05:37.661Z,4.40
2017-11-22T19:08:05.202Z,4.33
2017-11-22T19:10:33.477Z,6.47
2017-11-22T19:13:01.038Z,14.03
2017-11-22T19:15:29.514Z,8.53
2017-11-22T19:17:57.813Z,9.10
2017-11-22T19:20:25.375Z,10.23
2017-11-22T19:22:53.696Z,9.90
2017-11-22T19:25:21.208Z,8.07
2017-11-22T19:27:48.785Z,7.53
2017-11-22T19:30:17.114Z,15.90
2017-11-22T19:32:44.670Z,9.43
2017-11-22T19:35:13.754Z,6.90
2017-11-22T19:37:44.039Z,14.57
2017-11-22T19:40:12.828Z,7.70
2017-11-22T19:42:40.392Z,8.63
2017-11-22T19:45:07.936Z,10.93
2017-11-22T19:47:35.496Z,17.17
2017-11-22T19:50:03.022Z,10.23
2017-11-22T19:52:30.589Z,9.47
2017-11-22T19:55:09.659Z,7.67
2017-11-22T19:57:46.211Z,10.77
2017-11-22T20:00:13.774Z,11.23
2017-11-22T20:02:42.102Z,16.03
2017-11-22T20:05:09.705Z,10.93
2017-11-22T20:07:47.782Z,14.37
2017-11-22T20:10:17.543Z,8.70
2017-11-22T20:12:45.099Z,6.33
2017-11-22T20:15:15.453Z,6.87
2017-11-22T20:17:42.997Z,6.00
2017-11-22T20:20:10.500Z,5.67
2017-11-22T20:22:38.186Z,7.97
2017-11-22T20:25:10.146Z,6.00
2017-11-22T20:27:38.457Z,7.97
2017-11-22T20:30:14.611Z,6.50
2017-11-22T20:32:42.165Z,13.13
2017-11-22T20:35:10.450Z,5.93
2017-11-22T20:37:43.409Z,9.17
2017-11-22T20:40:10.922Z,5.90
2017-11-22T20:42:38.453Z,6.23
2017-11-22T20:45:06.774Z,5.20
2017-11-22T20:47:38.419Z,7.93
2017-11-22T20:50:05.995Z,6.87
2017-11-22T20:52:35.815Z,6.03
2017-11-22T20:55:06.302Z,11.10
2017-11-22T20:57:34.630Z,8.10
2017-11-22T21:00:02.160Z,13.40
2017-11-22T21:02:30.574Z,6.23
2017-11-22T21:04:58.123Z,8.63
2017-11-22T21:07:26.479Z,8.30
2017-11-22T21:09:54.020Z,13.37
2017-11-22T21:12:21.601Z,6.03
2017-11-22T21:14:49.127Z,7.90
2017-11-22T21:17:16.698Z,7.60
2017-11-22T21:19:44.221Z,4.80
2017-11-22T21:22:12.555Z,7.67
2017-11-22T21:24:40.238Z,6.87
2017-11-22T21:27:07.795Z,7.20
2017-11-22T21:29:35.364Z,9.30
2017-11-22T21:32:02.939Z,11.13
2017-11-22T21:34:30.491Z,7.00
2017-11-22T21:36:58.013Z,6.80
2017-11-22T21:39:25.603Z,6.00
2017-11-22T21:41:53.543Z,7.83
2017-11-22T21:44:21.038Z,5.90
2017-11-22T21:46:48.578Z,9.10
2017-11-22T21:49:16.064Z,8.90
2017-11-22T21:51:43.618Z,12.60
2017-11-22T21:54:11.163Z,8.93
2017-11-22T21:56:38.730Z,6.13
2017-11-22T21:59:06.244Z,7.80
2017-11-22T22:01:33.843Z,6.30
2017-11-22T22:04:01.458Z,7.70
2017-11-22T22:06:28.968Z,9.90
2017-11-22T22:08:57.292Z,6.80
2017-11-22T22:11:24.834Z,8.67
2017-11-22T22:13:52.431Z,5.23
2017-11-22T22:16:20.011Z,9.17
2017-11-22T22:18:47.555Z,8.90
2017-11-22T22:21:15.059Z,13.33
2017-11-22T22:23:42.590Z,8.83
2017-11-22T22:26:10.191Z,10.23
2017-11-22T22:28:37.754Z,10.70
2017-11-22T22:31:05.318Z,13.40
2017-11-22T22:33:32.857Z,8.00
2017-11-22T22:36:00.420Z,8.50
2017-11-22T22:38:27.964Z,7.60
2017-11-22T22:40:55.542Z,4.97
2017-11-22T22:43:23.113Z,7.67
2017-11-22T22:45:50.635Z,8.23
2017-11-22T22:48:18.385Z,12.57
2017-11-22T22:50:46.026Z,5.90
2017-11-22T22:53:13.558Z,5.93
2017-11-22T22:55:41.153Z,7.07
2017-11-22T22:58:08.686Z,5.23
2017-11-22T23:00:36.273Z,8.33
2017-11-22T23:03:03.786Z,5.10
2017-11-22T23:05:31.334Z,7.33
2017-11-22T23:07:58.844Z,6.07
2017-11-22T23:10:26.364Z,4.83
2017-11-22T23:12:53.876Z,5.33
2017-11-22T23:15:21.392Z,4.60
2017-11-22T23:17:48.923Z,6.17
2017-11-22T23:20:16.401Z,4.20
2017-11-22T23:22:43.949Z,4.90
2017-11-22T23:25:11.501Z,4.03
2017-11-22T23:27:39.024Z,7.73
2017-11-22T23:30:06.628Z,4.73
2017-11-22T23:32:34.155Z,4.57
2017-11-22T23:35:02.453Z,5.27
2017-11-22T23:37:29.970Z,6.00
2017-11-22T23:39:57.448Z,4.33
2017-11-22T23:42:24.989Z,6.37
2017-11-22T23:44:52.524Z,4.17
2017-11-22T23:47:20.348Z,4.60
2017-11-22T23:49:47.851Z,6.20
2017-11-22T23:52:15.591Z,4.83
2017-11-22T23:54:43.896Z,5.10
2017-11-22T23:57:11.416Z,4.30
2017-11-22T23:59:38.957Z,4.90
